createdAt,value
2019-03-06T00:01:24.806Z,94711.83
2019-03-06T00:03:55.219Z,94718.87
2019-03-06T00:06:25.998Z,94718.95
2019-03-06T00:08:56.347Z,94719.98
2019-03-06T00:11:26.646Z,94715.05
2019-03-06T00:13:57.213Z,94719.87
2019-03-06T00:16:27.762Z,94714.41
2019-03-06T00:18:58.214Z,94724.50
2019-03-06T00:21:29.224Z,94728.34
2019-03-06T00:23:59.550Z,94721.72
2019-03-06T00:26:30.248Z,94729.69
2019-03-06T00:29:00.646Z,94720.64
2019-03-06T00:31:30.935Z,94714.56
2019-03-06T00:34:01.624Z,94706.75
2019-03-06T00:36:33.010Z,94709.06
2019-03-06T00:39:03.910Z,94705.67
2019-03-06T00:41:40.690Z,94714.30
2019-03-06T00:44:11.103Z,94718.20
2019-03-06T00:46:41.422Z,94707.67
2019-03-06T00:49:12.071Z,94712.47
2019-03-06T00:51:42.750Z,94705.72
2019-03-06T00:54:13.268Z,94701.23
2019-03-06T00:56:43.622Z,94698.84
2019-03-06T00:59:13.933Z,94695.53
2019-03-06T01:01:44.410Z,94702.78
2019-03-06T01:04:15.086Z,94697.25
2019-03-06T01:06:45.389Z,94699.38
2019-03-06T01:09:16.656Z,94695.41
2019-03-06T01:11:47.132Z,94692.05
2019-03-06T01:14:17.436Z,94693.37
2019-03-06T01:16:47.808Z,94696.43
2019-03-06T01:19:18.428Z,94699.42
2019-03-06T01:21:48.730Z,94693.28
2019-03-06T01:24:19.081Z,94685.81
2019-03-06T01:26:49.550Z,94687.56
2019-03-06T01:29:20.316Z,94691.98
2019-03-06T01:31:51.997Z,94690.09
2019-03-06T01:34:44.348Z,94680.89
2019-03-06T01:37:22.917Z,94685.93
2019-03-06T01:40:11.104Z,94688.01
2019-03-06T01:42:58.640Z,94683.36
2019-03-06T01:45:28.944Z,94687.48
2019-03-06T01:47:59.456Z,94686.60
2019-03-06T01:50:30.176Z,94690.90
2019-03-06T01:53:00.529Z,94691.94
2019-03-06T01:55:31.497Z,94689.77
2019-03-06T01:58:02.009Z,94694.84
2019-03-06T02:00:32.579Z,94698.95
2019-03-06T02:03:02.946Z,94701.48
2019-03-06T02:05:33.232Z,94703.75
2019-03-06T02:08:03.898Z,94699.77
2019-03-06T02:10:34.432Z,94689.05
2019-03-06T02:13:06.871Z,94683.86
2019-03-06T02:15:37.725Z,94690.30
2019-03-06T02:18:08.291Z,94697.81
2019-03-06T02:20:38.632Z,94700.92
2019-03-06T02:23:09.334Z,94678.83
2019-03-06T02:25:40.046Z,94690.11
2019-03-06T02:28:10.329Z,94683.81
2019-03-06T02:30:41.168Z,94686.76
2019-03-06T02:33:12.015Z,94675.78
2019-03-06T02:35:42.514Z,94686.55
2019-03-06T02:38:12.864Z,94682.96
2019-03-06T02:40:43.535Z,94685.16
2019-03-06T02:43:13.923Z,94684.61
2019-03-06T02:45:44.251Z,94695.69
2019-03-06T02:48:15.043Z,94694.14
2019-03-06T02:50:45.331Z,94692.55
2019-03-06T02:53:15.651Z,94694.59
2019-03-06T02:55:46.254Z,94697.63
2019-03-06T02:58:31.439Z,94701.22
2019-03-06T03:01:23.457Z,94703.62
2019-03-06T03:04:07.685Z,94709.19
2019-03-06T03:06:44.753Z,94719.19
2019-03-06T03:09:17.726Z,94722.84
2019-03-06T03:11:48.147Z,94724.16
2019-03-06T03:14:18.440Z,94720.72
2019-03-06T03:16:49.226Z,94711.89
2019-03-06T03:19:19.755Z,94716.59
2019-03-06T03:21:50.137Z,94720.27
2019-03-06T03:24:21.071Z,94715.92
2019-03-06T03:26:51.752Z,94721.52
2019-03-06T03:29:22.218Z,94736.36
2019-03-06T03:31:53.007Z,94737.56
2019-03-06T03:34:23.750Z,94731.77
2019-03-06T03:36:54.167Z,94730.44
2019-03-06T03:39:25.565Z,94725.52
2019-03-06T03:41:55.895Z,94726.61
2019-03-06T03:44:26.584Z,94733.39
2019-03-06T03:46:57.221Z,94729.78
2019-03-06T03:49:27.982Z,94729.94
2019-03-06T03:51:58.888Z,94731.19
2019-03-06T03:54:29.588Z,94730.58
2019-03-06T03:56:59.909Z,94737.87
2019-03-06T03:59:30.652Z,94736.57
2019-03-06T04:02:01.313Z,94726.73
2019-03-06T04:04:31.946Z,94728.05
2019-03-06T04:07:02.279Z,94736.84
2019-03-06T04:09:32.944Z,94723.89
2019-03-06T04:12:03.575Z,94735.13
2019-03-06T04:14:34.228Z,94738.72
2019-03-06T04:17:04.555Z,94750.41
2019-03-06T04:19:35.089Z,94732.08
2019-03-06T04:22:05.934Z,94742.93
2019-03-06T04:24:36.361Z,94747.00
2019-03-06T04:27:06.721Z,94743.19
2019-03-06T04:29:37.207Z,94735.47
2019-03-06T04:32:07.561Z,94743.30
2019-03-06T04:34:38.233Z,94751.57
2019-03-06T04:37:08.613Z,94755.63
2019-03-06T04:39:38.923Z,94763.67
2019-03-06T04:42:09.341Z,94764.41
2019-03-06T04:44:39.623Z,94766.96
2019-03-06T04:47:09.957Z,94771.80
2019-03-06T04:49:40.651Z,94783.52
2019-03-06T04:52:11.001Z,94801.58
2019-03-06T04:54:41.286Z,94795.84
2019-03-06T04:57:11.871Z,94799.94
2019-03-06T04:59:42.395Z,94794.67
2019-03-06T05:02:12.793Z,94809.40
2019-03-06T05:04:43.495Z,94816.82
2019-03-06T05:07:13.911Z,94812.34
2019-03-06T05:09:44.281Z,94807.92
2019-03-06T05:12:14.658Z,94803.27
2019-03-06T05:14:45.152Z,94797.54
2019-03-06T05:17:35.838Z,94792.06
2019-03-06T05:20:06.546Z,94810.65
2019-03-06T05:22:37.005Z,94817.29
2019-03-06T05:25:07.712Z,94813.66
2019-03-06T05:27:38.345Z,94821.08
2019-03-06T05:30:09.373Z,94812.31
2019-03-06T05:32:40.047Z,94819.69
2019-03-06T05:35:50.006Z,94810.22
2019-03-06T05:38:24.815Z,94791.86
2019-03-06T05:40:55.175Z,94807.09
2019-03-06T05:43:25.897Z,94809.78
2019-03-06T05:45:56.197Z,94813.45
2019-03-06T05:48:26.846Z,94805.37
2019-03-06T05:50:57.207Z,94813.70
2019-03-06T05:53:27.928Z,94821.03
2019-03-06T05:56:00.111Z,94828.82
2019-03-06T05:58:30.448Z,94827.88
2019-03-06T06:01:00.893Z,94827.66
2019-03-06T06:03:31.583Z,94823.77
2019-03-06T06:06:01.959Z,94830.43
2019-03-06T06:08:32.319Z,94845.93
2019-03-06T06:11:02.834Z,94847.11
2019-03-06T06:13:33.148Z,94854.60
2019-03-06T06:16:03.439Z,94852.94
2019-03-06T06:18:34.159Z,94857.47
2019-03-06T06:21:35.655Z,94856.83
2019-03-06T06:24:18.414Z,94852.77
2019-03-06T06:26:48.730Z,94849.23
2019-03-06T06:29:19.233Z,94856.23
2019-03-06T06:31:49.758Z,94859.38
2019-03-06T06:34:20.260Z,94863.18
2019-03-06T06:36:50.619Z,94582.46
2019-03-06T06:39:21.288Z,94865.28
2019-03-06T06:41:51.843Z,94872.78
2019-03-06T06:44:22.164Z,94870.45
2019-03-06T06:46:52.944Z,94878.67
2019-03-06T06:49:23.553Z,94873.59
2019-03-06T06:52:37.977Z,94881.83
2019-03-06T06:55:28.588Z,94889.26
2019-03-06T06:58:44.771Z,94893.94
2019-03-06T07:01:51.331Z,94893.27
2019-03-06T07:05:18.965Z,94888.11
2019-03-06T07:08:00.742Z,94894.05
2019-03-06T07:10:59.204Z,94900.84
2019-03-06T07:13:52.024Z,94896.86
2019-03-06T07:16:34.562Z,94900.27
2019-03-06T07:19:32.931Z,94894.18
2019-03-06T07:22:22.220Z,94905.35
2019-03-06T07:25:07.392Z,94895.66
2019-03-06T07:28:08.947Z,94903.32
2019-03-06T07:30:52.083Z,94904.18
2019-03-06T07:33:46.924Z,94913.12
2019-03-06T07:36:34.272Z,94907.56
2019-03-06T07:39:17.961Z,94915.13
2019-03-06T07:41:55.586Z,94910.88
2019-03-06T07:44:44.879Z,94914.97
2019-03-06T07:47:39.901Z,94919.45
2019-03-06T07:50:37.810Z,94915.95
2019-03-06T07:54:08.374Z,94912.07
2019-03-06T07:57:07.655Z,94922.59
2019-03-06T07:59:38.201Z,94932.02
2019-03-06T08:02:11.577Z,94925.08
2019-03-06T08:04:50.832Z,94924.40
2019-03-06T08:07:21.249Z,94928.22
2019-03-06T08:09:52.264Z,94932.63
2019-03-06T08:12:39.718Z,94932.31
2019-03-06T08:15:40.047Z,94931.22
2019-03-06T08:18:29.658Z,94936.53
2019-03-06T08:21:17.363Z,94933.63
2019-03-06T08:24:05.267Z,94934.23
2019-03-06T08:26:35.709Z,94940.05
2019-03-06T08:29:06.300Z,94945.97
2019-03-06T08:31:55.556Z,94943.55
2019-03-06T08:34:26.063Z,94935.72
2019-03-06T08:36:56.650Z,94942.25
2019-03-06T08:39:26.939Z,94937.58
2019-03-06T08:41:57.684Z,94940.61
2019-03-06T08:44:28.014Z,94937.59
2019-03-06T08:47:16.951Z,94942.03
2019-03-06T08:50:15.536Z,94943.91
2019-03-06T08:53:10.691Z,94953.19
2019-03-06T08:56:00.089Z,94946.13
2019-03-06T08:58:47.897Z,94940.14
2019-03-06T09:01:38.598Z,94953.55
2019-03-06T09:04:23.478Z,94956.89
2019-03-06T09:07:31.440Z,94958.40
2019-03-06T09:10:19.513Z,94954.78
2019-03-06T09:13:04.983Z,94962.53
2019-03-06T09:15:57.898Z,94963.45
2019-03-06T09:18:47.555Z,94956.07
2019-03-06T09:21:43.142Z,94948.41
2019-03-06T09:24:42.086Z,94958.84
2019-03-06T09:27:30.136Z,94963.07
2019-03-06T09:30:19.728Z,94970.69
2019-03-06T09:33:11.752Z,94969.09
2019-03-06T09:35:55.161Z,94968.00
2019-03-06T09:38:43.586Z,94971.45
2019-03-06T09:41:35.292Z,94963.05
2019-03-06T09:44:13.981Z,94964.86
2019-03-06T09:47:09.462Z,94965.41
2019-03-06T09:50:13.987Z,94974.41
2019-03-06T09:53:02.028Z,94967.86
2019-03-06T09:55:49.704Z,94969.44
2019-03-06T09:58:39.017Z,94957.16
2019-03-06T10:01:37.904Z,94952.99
2019-03-06T10:04:24.303Z,94958.92
2019-03-06T10:07:22.515Z,94951.61
2019-03-06T10:10:15.056Z,94949.17
2019-03-06T10:12:51.300Z,94955.72
2019-03-06T10:15:40.580Z,94963.81
2019-03-06T10:18:19.728Z,94963.39
2019-03-06T10:20:50.285Z,94967.92
2019-03-06T10:23:20.602Z,94962.55
2019-03-06T10:25:51.107Z,94952.69
2019-03-06T10:28:27.918Z,94954.16
2019-03-06T10:31:02.207Z,94958.80
2019-03-06T10:33:26.324Z,94954.89
2019-03-06T10:35:56.624Z,94963.75
2019-03-06T10:38:27.305Z,94963.31
2019-03-06T10:40:59.063Z,94948.37
2019-03-06T10:43:29.393Z,94953.47
2019-03-06T10:46:00.042Z,94948.91
2019-03-06T10:48:31.048Z,94950.33
2019-03-06T10:51:01.476Z,94946.65
2019-03-06T10:53:40.917Z,94942.19
2019-03-06T10:56:04.651Z,94927.22
2019-03-06T10:58:35.200Z,94945.57
2019-03-06T11:01:06.397Z,94934.40
2019-03-06T11:03:52.302Z,94940.53
2019-03-06T11:06:22.785Z,94930.13
2019-03-06T11:08:54.717Z,94938.14
2019-03-06T11:11:25.010Z,94937.39
2019-03-06T11:13:55.353Z,94930.36
2019-03-06T11:16:25.741Z,94927.24
2019-03-06T11:18:56.506Z,94927.13
2019-03-06T11:21:27.053Z,94920.61
2019-03-06T11:23:57.939Z,94944.53
2019-03-06T11:26:28.777Z,94924.83
2019-03-06T11:28:59.377Z,94920.17
2019-03-06T11:31:30.205Z,94943.31
2019-03-06T11:34:01.064Z,94911.00
2019-03-06T11:36:31.354Z,94929.95
2019-03-06T11:39:02.091Z,94912.30
2019-03-06T11:41:34.371Z,94924.98
2019-03-06T11:44:04.932Z,94922.33
2019-03-06T11:46:35.412Z,94948.84
2019-03-06T11:49:06.700Z,94927.59
2019-03-06T11:51:37.010Z,94919.63
2019-03-06T11:54:07.755Z,94902.52
2019-03-06T11:56:38.671Z,94918.80
2019-03-06T11:59:09.122Z,94909.30
2019-03-06T12:01:48.069Z,94927.19
2019-03-06T12:04:13.498Z,94918.93
2019-03-06T12:06:43.965Z,94918.93
2019-03-06T12:09:34.058Z,94907.31
2019-03-06T12:12:05.939Z,94918.11
2019-03-06T12:14:36.414Z,94912.96
2019-03-06T12:17:07.179Z,94930.19
2019-03-06T12:19:37.685Z,94924.48
2019-03-06T12:22:07.967Z,94922.37
2019-03-06T12:24:39.455Z,94922.37
2019-03-06T12:27:09.952Z,94919.45
2019-03-06T12:29:40.274Z,94930.27
2019-03-06T12:32:11.194Z,94915.38
2019-03-06T12:34:41.814Z,94913.22
2019-03-06T12:37:12.337Z,94915.22
2019-03-06T12:39:42.667Z,94916.78
2019-03-06T12:42:15.143Z,94914.59
2019-03-06T12:44:45.408Z,94909.95
2019-03-06T12:47:15.980Z,94902.22
2019-03-06T12:49:46.403Z,94903.06
2019-03-06T12:52:17.265Z,94903.06
2019-03-06T12:54:47.815Z,94912.55
2019-03-06T12:57:18.099Z,94910.80
2019-03-06T12:59:48.919Z,94914.09
2019-03-06T13:02:19.604Z,94929.97
2019-03-06T13:04:49.934Z,94944.61
2019-03-06T13:07:20.441Z,94930.65
2019-03-06T13:09:51.045Z,94923.66
2019-03-06T13:12:21.615Z,94934.23
2019-03-06T13:14:52.336Z,94922.61
2019-03-06T13:17:22.906Z,94914.67
2019-03-06T13:19:53.671Z,94922.02
2019-03-06T13:22:24.137Z,94925.19
2019-03-06T13:24:54.441Z,94919.42
2019-03-06T13:27:25.713Z,94919.42
2019-03-06T13:29:56.123Z,94921.66
2019-03-06T13:32:33.068Z,94925.84
2019-03-06T13:35:05.826Z,94925.84
2019-03-06T13:37:36.544Z,94916.52
2019-03-06T13:40:07.115Z,94920.33
2019-03-06T13:42:37.878Z,94925.56
2019-03-06T13:45:08.948Z,94925.13
2019-03-06T13:47:39.890Z,94921.41
2019-03-06T13:50:11.668Z,94930.53
2019-03-06T13:52:42.135Z,94921.66
2019-03-06T13:55:12.994Z,94941.41
2019-03-06T13:57:44.442Z,94927.55
2019-03-06T14:00:17.214Z,94931.92
2019-03-06T14:02:48.429Z,94932.47
2019-03-06T14:05:20.534Z,94940.79
2019-03-06T14:07:56.279Z,94940.11
2019-03-06T14:10:23.795Z,94937.14
2019-03-06T14:12:55.004Z,94935.97
2019-03-06T14:15:25.672Z,94938.60
2019-03-06T14:17:56.237Z,94946.30
2019-03-06T14:20:26.559Z,94933.35
2019-03-06T14:22:57.209Z,94943.75
2019-03-06T14:25:27.982Z,94931.85
2019-03-06T14:27:58.404Z,94939.14
2019-03-06T14:30:28.830Z,94938.86
2019-03-06T14:32:59.501Z,94945.03
2019-03-06T14:35:30.477Z,94945.56
2019-03-06T14:38:01.012Z,94943.48
2019-03-06T14:40:33.285Z,94947.33
2019-03-06T14:43:05.262Z,94952.52
2019-03-06T14:45:35.793Z,94962.77
2019-03-06T14:48:06.828Z,94943.57
2019-03-06T14:50:37.153Z,94952.05
2019-03-06T14:53:08.034Z,94953.34
2019-03-06T14:55:38.603Z,94955.86
2019-03-06T14:58:09.021Z,94955.86
2019-03-06T15:00:39.727Z,94956.17
2019-03-06T15:03:10.457Z,94955.63
2019-03-06T15:05:47.163Z,94953.28
2019-03-06T15:08:13.235Z,94948.45
2019-03-06T15:10:44.023Z,94948.70
2019-03-06T15:13:15.900Z,94947.98
2019-03-06T15:15:46.619Z,94950.14
2019-03-06T15:18:17.422Z,94951.82
2019-03-06T15:20:48.091Z,94953.73
2019-03-06T15:23:18.751Z,94955.76
2019-03-06T15:25:49.153Z,94959.60
2019-03-06T15:28:19.583Z,94964.64
2019-03-06T15:30:50.671Z,94965.77
2019-03-06T15:33:22.108Z,94973.43
2019-03-06T15:35:52.718Z,94972.44
2019-03-06T15:38:24.306Z,94981.05
2019-03-06T15:40:54.630Z,94983.13
2019-03-06T15:43:25.230Z,94977.23
2019-03-06T15:45:56.072Z,94989.22
2019-03-06T15:48:26.550Z,94996.76
2019-03-06T15:50:56.877Z,94992.30
2019-03-06T15:53:27.568Z,94996.13
2019-03-06T15:55:58.206Z,94998.26
2019-03-06T15:58:28.484Z,95004.86
2019-03-06T16:00:59.351Z,95011.14
2019-03-06T16:03:30.293Z,95011.14
2019-03-06T16:06:00.735Z,95017.16
2019-03-06T16:08:31.901Z,95018.10
2019-03-06T16:11:02.554Z,95029.09
2019-03-06T16:13:32.998Z,95028.86
2019-03-06T16:16:04.493Z,95030.45
2019-03-06T16:18:35.333Z,95040.20
2019-03-06T16:21:06.190Z,95035.43
2019-03-06T16:23:36.691Z,95039.07
2019-03-06T16:26:07.018Z,95046.95
2019-03-06T16:28:37.403Z,95044.18
2019-03-06T16:31:08.244Z,95051.53
2019-03-06T16:33:38.885Z,95046.93
2019-03-06T16:36:09.398Z,95050.62
2019-03-06T16:38:40.083Z,95050.33
2019-03-06T16:41:10.647Z,95043.38
2019-03-06T16:43:41.034Z,95043.62
2019-03-06T16:46:11.966Z,95045.64
2019-03-06T16:48:42.262Z,95051.73
2019-03-06T16:51:12.803Z,95062.03
2019-03-06T16:53:43.173Z,95059.89
2019-03-06T16:56:13.854Z,95069.34
2019-03-06T16:58:44.356Z,95078.81
2019-03-06T17:01:15.018Z,95081.78
2019-03-06T17:03:45.532Z,95079.05
2019-03-06T17:06:16.668Z,95076.47
2019-03-06T17:08:47.028Z,95084.05
2019-03-06T17:11:17.675Z,95085.67
2019-03-06T17:13:48.630Z,95087.34
2019-03-06T17:16:19.482Z,95091.63
2019-03-06T17:18:50.142Z,95096.48
2019-03-06T17:21:20.890Z,95100.00
2019-03-06T17:23:51.670Z,95100.90
2019-03-06T17:26:22.052Z,95103.23
2019-03-06T17:28:52.529Z,95110.52
2019-03-06T17:31:23.329Z,95116.75
2019-03-06T17:33:54.107Z,95124.36
2019-03-06T17:36:24.676Z,95120.75
2019-03-06T17:38:55.128Z,95123.08
2019-03-06T17:41:25.829Z,95124.42
2019-03-06T17:43:56.201Z,95125.73
2019-03-06T17:46:26.686Z,95121.94
2019-03-06T17:48:57.484Z,95117.61
2019-03-06T17:51:28.324Z,95123.19
2019-03-06T17:53:58.710Z,95125.00
2019-03-06T17:56:29.401Z,95121.76
2019-03-06T17:59:00.015Z,95128.20
2019-03-06T18:01:30.505Z,95126.78
2019-03-06T18:04:14.734Z,95122.37
2019-03-06T18:06:45.514Z,95117.31
2019-03-06T18:09:15.911Z,95123.10
2019-03-06T18:11:46.464Z,95121.95
2019-03-06T18:14:17.280Z,95125.42
2019-03-06T18:16:48.177Z,95113.63
2019-03-06T18:19:18.591Z,95111.03
2019-03-06T18:21:49.389Z,95117.11
2019-03-06T18:24:19.948Z,95118.98
2019-03-06T18:26:50.287Z,95122.35
2019-03-06T18:29:21.130Z,95122.09
2019-03-06T18:31:51.506Z,95121.50
2019-03-06T18:34:22.282Z,95123.50
2019-03-06T18:36:52.735Z,95131.66
2019-03-06T18:39:23.039Z,95132.61
2019-03-06T18:41:56.385Z,95125.60
2019-03-06T18:44:31.954Z,95130.14
2019-03-06T18:47:02.896Z,95120.75
2019-03-06T18:49:38.637Z,95122.05
2019-03-06T18:52:12.109Z,95122.48
2019-03-06T18:54:42.898Z,94811.17
2019-03-06T18:57:13.495Z,95124.63
2019-03-06T18:59:43.854Z,95129.75
2019-03-06T19:02:14.203Z,95134.45
2019-03-06T19:04:44.803Z,95137.05
2019-03-06T19:07:15.215Z,95136.05
2019-03-06T19:09:47.992Z,95133.41
2019-03-06T19:12:19.801Z,95131.98
2019-03-06T19:14:52.754Z,95126.48
2019-03-06T19:17:23.377Z,95129.66
2019-03-06T19:19:55.285Z,95130.09
2019-03-06T19:22:27.281Z,95129.80
2019-03-06T19:24:58.156Z,95124.39
2019-03-06T19:27:28.947Z,95127.69
2019-03-06T19:29:59.354Z,95124.50
2019-03-06T19:32:29.780Z,95133.08
2019-03-06T19:35:00.616Z,95120.24
2019-03-06T19:37:31.282Z,95124.11
2019-03-06T19:40:02.136Z,95134.09
2019-03-06T19:42:34.118Z,95139.31
2019-03-06T19:45:06.855Z,95147.80
2019-03-06T19:47:38.402Z,95150.52
2019-03-06T19:50:14.602Z,95151.23
2019-03-06T19:52:45.234Z,95154.26
2019-03-06T19:55:17.132Z,95162.44
2019-03-06T19:57:58.962Z,95158.30
2019-03-06T20:00:29.949Z,95163.06
2019-03-06T20:03:00.864Z,95163.06
2019-03-06T20:05:34.688Z,95164.48
2019-03-06T20:08:08.362Z,95169.37
2019-03-06T20:10:39.613Z,95171.78
2019-03-06T20:13:10.794Z,95177.14
2019-03-06T20:15:41.118Z,95185.86
2019-03-06T20:18:12.188Z,95186.63
2019-03-06T20:20:42.869Z,95184.91
2019-03-06T20:23:13.144Z,95184.78
2019-03-06T20:25:43.562Z,95178.96
2019-03-06T20:28:14.293Z,95191.31
2019-03-06T20:30:44.857Z,95195.31
2019-03-06T20:33:15.414Z,95196.70
2019-03-06T20:35:46.304Z,95190.25
2019-03-06T20:38:16.771Z,95194.72
2019-03-06T20:40:47.555Z,95186.97
2019-03-06T20:43:17.839Z,95194.73
2019-03-06T20:45:48.198Z,95188.56
2019-03-06T20:48:19.115Z,95200.13
2019-03-06T20:50:49.403Z,95197.02
2019-03-06T20:53:19.678Z,95196.54
2019-03-06T20:55:50.176Z,95190.94
2019-03-06T20:58:20.603Z,95198.41
2019-03-06T21:00:57.345Z,95201.30
2019-03-06T21:03:35.099Z,95199.83
2019-03-06T21:06:06.270Z,95206.50
2019-03-06T21:08:36.599Z,95198.43
2019-03-06T21:11:07.321Z,95196.12
2019-03-06T21:13:37.710Z,95200.59
2019-03-06T21:16:08.407Z,95203.67
2019-03-06T21:18:39.103Z,95198.38
2019-03-06T21:21:09.685Z,95205.69
2019-03-06T21:23:40.306Z,95203.92
2019-03-06T21:26:10.728Z,95209.11
2019-03-06T21:28:41.119Z,95224.59
2019-03-06T21:31:11.831Z,95198.67
2019-03-06T21:33:42.620Z,95196.86
2019-03-06T21:36:13.041Z,95197.06
2019-03-06T21:38:43.484Z,95198.23
2019-03-06T21:41:15.447Z,95201.55
2019-03-06T21:43:45.883Z,95195.27
2019-03-06T21:46:16.733Z,95198.28
2019-03-06T21:48:47.030Z,95200.56
2019-03-06T21:51:17.859Z,95206.50
2019-03-06T21:53:48.604Z,95210.39
2019-03-06T21:56:18.909Z,95212.86
2019-03-06T21:58:49.397Z,95217.56
2019-03-06T22:01:20.037Z,95224.22
2019-03-06T22:03:50.388Z,95222.61
2019-03-06T22:06:20.794Z,95218.42
2019-03-06T22:08:51.402Z,95211.66
2019-03-06T22:11:21.768Z,95212.49
2019-03-06T22:13:52.446Z,95223.66
2019-03-06T22:16:23.315Z,95219.09
2019-03-06T22:18:53.739Z,95223.58
2019-03-06T22:21:24.168Z,95216.30
2019-03-06T22:23:54.530Z,95213.00
2019-03-06T22:26:25.140Z,95216.80
2019-03-06T22:28:55.765Z,95216.78
2019-03-06T22:31:26.049Z,95225.52
2019-03-06T22:33:56.470Z,95219.50
2019-03-06T22:36:27.204Z,95228.91
2019-03-06T22:38:57.681Z,95223.09
2019-03-06T22:41:28.299Z,95228.41
2019-03-06T22:44:00.181Z,95227.48
2019-03-06T22:46:31.060Z,95232.55
2019-03-06T22:49:01.436Z,95227.88
2019-03-06T22:51:31.719Z,95224.20
2019-03-06T22:54:02.203Z,95212.40
2019-03-06T22:56:32.879Z,95214.94
2019-03-06T22:59:03.411Z,95220.02
2019-03-06T23:01:38.809Z,95224.11
2019-03-06T23:04:09.575Z,95220.58
2019-03-06T23:06:40.314Z,95216.27
2019-03-06T23:09:12.312Z,95215.64
2019-03-06T23:11:43.101Z,95218.77
2019-03-06T23:14:14.095Z,95216.79
2019-03-06T23:16:44.402Z,95213.98
2019-03-06T23:19:14.789Z,95207.27
2019-03-06T23:21:45.067Z,95205.12
2019-03-06T23:24:15.770Z,95210.47
2019-03-06T23:26:46.589Z,95210.96
2019-03-06T23:29:16.979Z,95204.89
2019-03-06T23:31:50.366Z,95210.32
2019-03-06T23:34:20.586Z,95202.77
2019-03-06T23:36:50.967Z,95195.23
2019-03-06T23:39:21.334Z,95193.17
2019-03-06T23:41:51.871Z,95196.65
2019-03-06T23:44:22.389Z,95191.26
2019-03-06T23:46:53.562Z,95199.44
2019-03-06T23:49:23.998Z,95201.14
2019-03-06T23:52:02.941Z,95201.14
2019-03-06T23:54:33.845Z,95193.53
2019-03-06T23:57:04.316Z,95205.47
2019-03-06T23:59:34.811Z,95203.08
